createdAt,value
2022-12-08T00:01:35.494Z,26.38
2022-12-08T00:04:05.033Z,35.15
2022-12-08T00:06:59.611Z,34.90
2022-12-08T00:09:39.689Z,37.58
2022-12-08T00:12:16.553Z,29.50
2022-12-08T00:14:47.187Z,31.33
2022-12-08T00:17:17.447Z,26.98
2022-12-08T00:19:45.133Z,26.52
2022-12-08T00:22:15.396Z,41.17
2022-12-08T00:24:47.614Z,32.22
2022-12-08T00:27:18.128Z,31.05
2022-12-08T00:29:46.371Z,26.55
2022-12-08T00:32:14.970Z,21.95
2022-12-08T00:34:42.657Z,26.48
2022-12-08T00:37:10.194Z,28.43
2022-12-08T00:39:38.556Z,45.75
2022-12-08T00:42:12.037Z,57.50
2022-12-08T00:44:41.885Z,43.05
2022-12-08T00:47:10.432Z,60.13
2022-12-08T00:52:05.590Z,70.93
2022-12-08T00:54:33.169Z,43.00
2022-12-08T00:57:00.760Z,39.80
2022-12-08T00:59:28.322Z,37.40
2022-12-08T01:01:55.945Z,30.67
2022-12-08T01:04:24.928Z,42.38
2022-12-08T01:06:53.279Z,40.03
2022-12-08T01:09:20.876Z,40.53
2022-12-08T01:11:48.559Z,44.47
2022-12-08T01:14:16.563Z,38.30
2022-12-08T01:16:44.424Z,48.10
2022-12-08T01:19:15.225Z,50.58
2022-12-08T01:21:44.782Z,44.33
2022-12-08T01:24:19.226Z,35.35
2022-12-08T01:26:48.312Z,32.38
2022-12-08T01:29:16.077Z,34.20
2022-12-08T01:31:43.650Z,30.73
2022-12-08T01:34:12.665Z,26.05
2022-12-08T01:36:42.316Z,30.55
2022-12-08T01:39:16.999Z,36.20
2022-12-08T01:41:47.653Z,30.00
2022-12-08T01:44:15.118Z,35.72
2022-12-08T01:46:48.562Z,32.65
2022-12-08T01:49:28.224Z,32.17
2022-12-08T01:52:14.433Z,35.47
2022-12-08T01:54:55.744Z,37.75
2022-12-08T01:57:34.361Z,27.20
2022-12-08T02:00:09.673Z,32.38
2022-12-08T02:03:03.314Z,32.00
2022-12-08T02:05:38.590Z,32.22
2022-12-08T02:08:13.252Z,36.78
2022-12-08T02:10:43.894Z,28.00
2022-12-08T02:13:16.769Z,29.55
2022-12-08T02:16:46.457Z,24.90
2022-12-08T02:19:43.958Z,23.77
2022-12-08T02:22:48.947Z,26.02
2022-12-08T02:25:42.438Z,24.30
2022-12-08T02:28:47.609Z,24.45
2022-12-08T02:32:15.886Z,28.35
2022-12-08T02:35:18.729Z,29.00
2022-12-08T02:37:58.566Z,24.42
2022-12-08T02:40:39.993Z,22.85
2022-12-08T02:43:22.510Z,27.42
2022-12-08T02:46:02.166Z,28.92
2022-12-08T02:48:30.955Z,26.88
2022-12-08T02:50:58.646Z,33.80
2022-12-08T02:53:32.165Z,27.63
2022-12-08T02:56:20.696Z,28.65
2022-12-08T02:59:06.025Z,30.45
2022-12-08T03:01:54.029Z,30.95
2022-12-08T03:04:26.992Z,34.22
2022-12-08T03:07:14.988Z,32.33
2022-12-08T03:09:52.986Z,34.95
2022-12-08T03:12:41.606Z,35.17
2022-12-08T03:15:15.634Z,43.45
2022-12-08T03:17:50.516Z,43.17
2022-12-08T03:20:23.875Z,45.70
2022-12-08T03:22:56.298Z,45.67
2022-12-08T03:25:31.989Z,59.28
2022-12-08T03:28:00.382Z,52.60
2022-12-08T03:30:32.670Z,49.33
2022-12-08T03:33:15.632Z,50.67
2022-12-08T03:35:45.233Z,52.78
2022-12-08T03:38:17.539Z,57.58
2022-12-08T03:41:05.649Z,57.47
2022-12-08T03:43:34.879Z,61.75
2022-12-08T03:46:02.629Z,64.27
2022-12-08T03:48:30.262Z,54.67
2022-12-08T03:50:57.994Z,49.93
2022-12-08T03:53:25.529Z,66.70
2022-12-08T03:55:54.421Z,60.15
2022-12-08T03:58:21.976Z,63.28
2022-12-08T04:00:49.565Z,61.67
2022-12-08T04:03:17.144Z,51.03
2022-12-08T04:05:44.752Z,53.43
2022-12-08T04:08:12.367Z,60.38
2022-12-08T04:10:40.227Z,63.77
2022-12-08T04:13:07.788Z,62.55
2022-12-08T04:15:35.492Z,56.03
2022-12-08T04:18:03.413Z,63.53
2022-12-08T04:20:31.055Z,60.97
2022-12-08T04:22:58.586Z,56.45
2022-12-08T04:25:26.304Z,56.50
2022-12-08T04:27:53.829Z,55.85
2022-12-08T04:30:21.313Z,58.95
2022-12-08T04:32:48.837Z,61.47
2022-12-08T04:35:16.994Z,55.38
2022-12-08T04:37:44.760Z,53.10
2022-12-08T04:40:13.543Z,58.33
2022-12-08T04:42:41.589Z,54.53
2022-12-08T04:45:10.168Z,50.17
2022-12-08T04:50:07.623Z,44.03
2022-12-08T04:52:37.215Z,47.10
2022-12-08T04:55:05.426Z,44.25
2022-12-08T04:57:33.016Z,44.63
2022-12-08T05:00:00.598Z,45.83
2022-12-08T05:02:28.186Z,42.40
2022-12-08T05:04:55.775Z,46.67
2022-12-08T05:07:23.295Z,49.97
2022-12-08T05:09:51.331Z,43.03
2022-12-08T05:12:18.882Z,39.75
2022-12-08T05:14:48.420Z,47.00
2022-12-08T05:17:19.161Z,41.95
2022-12-08T05:19:46.917Z,42.60
2022-12-08T05:22:14.461Z,42.88
2022-12-08T05:24:47.170Z,44.10
2022-12-08T05:27:16.052Z,44.70
2022-12-08T05:29:44.333Z,54.20
2022-12-08T05:32:11.973Z,71.68
2022-12-08T05:34:39.806Z,67.97
2022-12-08T05:37:07.407Z,65.60
2022-12-08T05:39:35.092Z,65.68
2022-12-08T05:42:02.838Z,56.35
2022-12-08T05:44:30.456Z,60.80
2022-12-08T05:46:57.991Z,65.43
2022-12-08T05:49:25.917Z,56.03
2022-12-08T05:51:53.483Z,74.17
2022-12-08T05:54:21.121Z,64.20
2022-12-08T05:56:49.837Z,63.80
2022-12-08T05:59:17.363Z,69.93
2022-12-08T06:01:44.926Z,58.88
2022-12-08T06:04:12.757Z,64.65
2022-12-08T06:06:40.233Z,61.25
2022-12-08T06:09:09.159Z,62.50
2022-12-08T06:11:36.950Z,51.58
2022-12-08T06:14:04.604Z,45.40
2022-12-08T06:16:32.872Z,78.25
2022-12-08T06:19:00.458Z,82.67
2022-12-08T06:21:28.842Z,72.68
2022-12-08T06:23:56.501Z,63.00
2022-12-08T06:26:24.205Z,59.97
2022-12-08T06:28:52.761Z,77.50
2022-12-08T06:33:51.900Z,50.03
2022-12-08T06:36:24.766Z,55.15
2022-12-08T06:38:52.996Z,94.60
2022-12-08T06:41:20.757Z,81.75
2022-12-08T06:43:48.528Z,63.90
2022-12-08T06:46:19.818Z,70.20
2022-12-08T06:48:48.069Z,126.60
2022-12-08T06:51:19.933Z,76.95
2022-12-08T06:53:47.761Z,81.47
2022-12-08T06:56:19.927Z,71.93
2022-12-08T06:58:52.323Z,70.97
2022-12-08T07:01:21.278Z,86.55
2022-12-08T07:06:25.278Z,64.10
2022-12-08T07:08:53.055Z,72.45
2022-12-08T07:11:22.304Z,84.72
2022-12-08T07:13:51.055Z,68.28
2022-12-08T07:16:18.876Z,104.55
2022-12-08T07:18:46.528Z,67.30
2022-12-08T07:21:17.593Z,86.68
2022-12-08T07:23:54.299Z,90.05
2022-12-08T07:26:25.821Z,105.38
2022-12-08T07:28:53.347Z,98.22
2022-12-08T07:31:24.947Z,50.47
2022-12-08T07:33:53.727Z,86.05
2022-12-08T07:38:50.627Z,86.90
2022-12-08T07:41:23.533Z,160.50
2022-12-08T07:43:53.571Z,146.18
2022-12-08T07:46:24.801Z,118.13
2022-12-08T07:48:54.070Z,128.80
2022-12-08T07:51:21.676Z,129.80
2022-12-08T07:53:54.196Z,140.00
2022-12-08T07:56:23.270Z,369.23
2022-12-08T07:58:51.243Z,343.38
2022-12-08T08:01:32.893Z,400.52
2022-12-08T08:04:06.908Z,255.82
2022-12-08T08:06:37.891Z,268.42
2022-12-08T08:09:05.917Z,176.50
2022-12-08T08:11:33.702Z,207.15
2022-12-08T08:14:01.538Z,180.77
2022-12-08T08:16:33.524Z,94.90
2022-12-08T08:19:04.278Z,163.18
2022-12-08T08:21:47.175Z,249.33
2022-12-08T08:24:14.735Z,308.35
2022-12-08T08:26:42.305Z,284.83
2022-12-08T08:29:10.007Z,194.73
2022-12-08T08:31:37.654Z,190.32
2022-12-08T08:34:06.403Z,111.93
2022-12-08T08:36:34.395Z,134.77
2022-12-08T08:39:02.201Z,92.45
2022-12-08T08:41:29.809Z,99.72
2022-12-08T08:43:57.387Z,105.40
2022-12-08T08:46:25.142Z,166.95
2022-12-08T08:48:52.782Z,96.97
2022-12-08T08:51:21.000Z,79.60
2022-12-08T08:53:48.624Z,75.32
2022-12-08T08:56:22.374Z,68.37
2022-12-08T08:58:51.891Z,64.25
2022-12-08T09:01:26.344Z,59.70
2022-12-08T09:03:54.997Z,79.38
2022-12-08T09:06:24.123Z,74.25
2022-12-08T09:08:52.105Z,114.80
2022-12-08T09:11:19.737Z,85.45
2022-12-08T09:13:53.359Z,50.43
2022-12-08T09:16:21.759Z,50.13
2022-12-08T09:21:22.904Z,39.45
2022-12-08T09:23:53.921Z,34.35
2022-12-08T09:26:23.311Z,35.92
2022-12-08T09:28:53.328Z,50.97
2022-12-08T09:31:23.216Z,41.13
2022-12-08T09:33:54.452Z,33.75
2022-12-08T09:36:22.107Z,34.38
2022-12-08T09:38:51.095Z,30.30
2022-12-08T09:41:48.218Z,31.48
2022-12-08T09:47:33.780Z,36.00
2022-12-08T09:50:14.145Z,40.50
2022-12-08T09:52:52.567Z,39.05
2022-12-08T09:58:53.773Z,34.88
2022-12-08T10:01:26.612Z,35.35
2022-12-08T10:03:57.422Z,33.05
2022-12-08T10:07:24.924Z,40.53
2022-12-08T10:10:11.546Z,31.40
2022-12-08T10:13:01.188Z,33.33
2022-12-08T10:15:43.647Z,32.08
2022-12-08T10:18:28.324Z,30.35
2022-12-08T10:21:12.373Z,34.60
2022-12-08T10:23:45.522Z,55.10
2022-12-08T10:26:17.616Z,90.18
2022-12-08T10:28:45.948Z,85.32
2022-12-08T10:31:32.458Z,108.53
2022-12-08T10:34:20.848Z,96.95
2022-12-08T10:39:36.957Z,90.07
2022-12-08T10:42:13.768Z,30.50
2022-12-08T10:45:11.756Z,35.55
2022-12-08T10:47:45.000Z,142.40
2022-12-08T10:50:28.488Z,125.63
2022-12-08T10:53:20.023Z,122.85
2022-12-08T10:55:58.350Z,118.90
2022-12-08T10:58:36.291Z,108.43
2022-12-08T11:01:26.791Z,100.50
2022-12-08T11:03:58.408Z,114.13
2022-12-08T11:06:32.751Z,108.65
2022-12-08T11:09:17.409Z,107.95
2022-12-08T11:11:58.334Z,104.28
2022-12-08T11:14:29.031Z,71.40
2022-12-08T11:17:07.229Z,75.07
2022-12-08T11:19:41.967Z,77.32
2022-12-08T11:22:30.709Z,81.53
2022-12-08T11:25:24.875Z,89.43
2022-12-08T11:27:57.854Z,80.35
2022-12-08T11:30:36.378Z,103.45
2022-12-08T11:33:19.853Z,84.93
2022-12-08T11:35:56.297Z,73.53
2022-12-08T11:38:27.732Z,93.03
2022-12-08T11:41:22.910Z,77.88
2022-12-08T11:44:05.777Z,81.75
2022-12-08T11:46:58.593Z,81.38
2022-12-08T11:49:40.325Z,71.90
2022-12-08T11:52:26.564Z,87.13
2022-12-08T11:55:05.455Z,80.88
2022-12-08T11:57:33.260Z,99.10
2022-12-08T12:00:02.768Z,82.20
2022-12-08T12:02:48.344Z,75.57
2022-12-08T12:06:23.930Z,112.45
2022-12-08T12:09:22.835Z,176.60
2022-12-08T12:12:15.992Z,123.78
2022-12-08T12:16:00.668Z,105.43
2022-12-08T12:18:47.680Z,86.00
2022-12-08T12:21:35.913Z,109.65
2022-12-08T12:24:25.476Z,93.53
2022-12-08T12:27:22.863Z,91.90
2022-12-08T12:30:06.733Z,84.95
2022-12-08T12:32:58.290Z,89.90
2022-12-08T12:35:41.103Z,73.43
2022-12-08T12:38:42.793Z,78.03
2022-12-08T12:41:13.537Z,77.00
2022-12-08T12:44:13.101Z,63.83
2022-12-08T12:46:46.296Z,67.47
2022-12-08T12:49:39.215Z,58.47
2022-12-08T12:52:16.033Z,58.60
2022-12-08T12:54:55.690Z,52.90
2022-12-08T12:57:37.213Z,57.60
2022-12-08T13:00:04.656Z,50.65
2022-12-08T13:02:44.148Z,52.38
2022-12-08T13:05:31.680Z,57.63
2022-12-08T13:08:19.180Z,52.50
2022-12-08T13:11:09.815Z,60.28
2022-12-08T13:13:56.439Z,46.47
2022-12-08T13:16:27.167Z,39.95
2022-12-08T13:19:03.524Z,45.88
2022-12-08T13:21:39.117Z,64.90
2022-12-08T13:24:33.141Z,72.45
2022-12-08T13:27:03.779Z,68.03
2022-12-08T13:29:33.515Z,82.78
2022-12-08T13:32:10.077Z,66.35
2022-12-08T13:34:45.429Z,58.05
2022-12-08T13:37:15.654Z,49.22
2022-12-08T13:40:00.897Z,53.70
2022-12-08T13:42:40.524Z,93.38
2022-12-08T13:45:27.845Z,87.75
2022-12-08T13:48:44.677Z,68.72
2022-12-08T13:55:12.948Z,41.28
2022-12-08T13:57:29.642Z,49.05
2022-12-08T14:00:15.331Z,44.45
2022-12-08T14:02:48.559Z,47.15
2022-12-08T14:05:34.618Z,47.08
2022-12-08T14:08:57.018Z,59.20
2022-12-08T14:11:33.777Z,83.25
2022-12-08T14:14:06.503Z,55.92
2022-12-08T14:16:40.765Z,58.78
2022-12-08T14:19:21.128Z,78.50
2022-12-08T14:22:14.118Z,87.15
2022-12-08T14:24:57.826Z,76.15
2022-12-08T14:27:32.293Z,86.88
2022-12-08T14:30:07.677Z,102.30
2022-12-08T14:32:39.468Z,106.95
2022-12-08T14:35:07.195Z,108.65
2022-12-08T14:37:48.720Z,120.13
2022-12-08T14:40:25.155Z,99.15
2022-12-08T14:43:19.709Z,109.05
2022-12-08T14:45:50.864Z,109.90
2022-12-08T14:48:31.022Z,115.68
2022-12-08T14:51:21.217Z,103.13
2022-12-08T14:53:56.267Z,95.20
2022-12-08T14:56:45.437Z,105.85
2022-12-08T14:59:23.047Z,126.20
2022-12-08T15:02:08.827Z,156.38
2022-12-08T15:04:44.656Z,167.07
2022-12-08T15:07:19.538Z,185.02
2022-12-08T15:10:05.918Z,117.97
2022-12-08T15:12:33.795Z,94.18
2022-12-08T15:15:14.415Z,158.48
2022-12-08T15:17:51.626Z,141.55
2022-12-08T15:20:40.967Z,133.38
2022-12-08T15:23:38.424Z,104.28
2022-12-08T15:26:06.540Z,119.78
2022-12-08T15:28:34.280Z,109.03
2022-12-08T15:33:29.912Z,93.32
2022-12-08T15:35:57.447Z,81.00
2022-12-08T15:38:28.862Z,100.35
2022-12-08T15:41:00.822Z,123.97
2022-12-08T15:43:31.336Z,132.15
2022-12-08T15:46:00.226Z,142.63
2022-12-08T15:48:30.635Z,94.30
2022-12-08T15:50:58.591Z,90.90
2022-12-08T15:53:26.315Z,86.22
2022-12-08T15:58:55.257Z,64.85
2022-12-08T16:01:24.559Z,59.67
2022-12-08T16:07:20.257Z,41.22
2022-12-08T16:09:38.629Z,47.58
2022-12-08T16:13:13.420Z,40.70
2022-12-08T16:18:27.623Z,47.80
2022-12-08T16:23:45.236Z,138.32
2022-12-08T16:26:35.437Z,181.32
2022-12-08T16:29:05.660Z,212.45
2022-12-08T16:31:33.506Z,183.70
2022-12-08T16:34:01.209Z,177.90
2022-12-08T16:36:28.856Z,173.13
2022-12-08T16:38:56.539Z,142.87
2022-12-08T16:41:43.112Z,125.00
2022-12-08T16:44:10.653Z,112.88
2022-12-08T16:46:38.353Z,169.40
2022-12-08T16:49:09.428Z,208.32
2022-12-08T16:51:37.195Z,299.13
2022-12-08T16:54:05.022Z,139.13
2022-12-08T16:56:33.745Z,150.35
2022-12-08T16:59:02.296Z,126.97
2022-12-08T17:01:30.715Z,77.32
2022-12-08T17:09:14.315Z,164.23
2022-12-08T17:11:43.710Z,192.90
2022-12-08T17:14:14.721Z,136.80
2022-12-08T17:16:44.163Z,138.38
2022-12-08T17:19:14.097Z,95.47
2022-12-08T17:21:42.968Z,105.45
2022-12-08T17:24:10.992Z,136.30
2022-12-08T17:26:38.628Z,189.30
2022-12-08T17:29:06.324Z,220.83
2022-12-08T17:31:34.233Z,137.60
2022-12-08T17:34:04.911Z,134.20
2022-12-08T17:36:32.727Z,109.22
2022-12-08T17:39:01.251Z,84.72
2022-12-08T17:43:57.509Z,69.13
2022-12-08T17:46:25.241Z,71.93
2022-12-08T17:48:53.636Z,162.77
2022-12-08T17:53:49.055Z,211.43
2022-12-08T17:56:21.861Z,150.98
2022-12-08T17:58:54.284Z,124.32
2022-12-08T18:01:24.133Z,101.63
2022-12-08T18:03:51.890Z,91.40
2022-12-08T18:06:19.655Z,152.97
2022-12-08T18:08:47.441Z,179.60
2022-12-08T18:11:19.900Z,107.03
2022-12-08T18:13:50.152Z,87.95
2022-12-08T18:16:21.438Z,125.47
2022-12-08T18:18:49.330Z,152.88
2022-12-08T18:21:23.278Z,138.73
2022-12-08T18:23:52.107Z,75.70
2022-12-08T18:26:19.878Z,64.90
2022-12-08T18:28:47.926Z,49.55
2022-12-08T18:31:19.812Z,57.35
2022-12-08T18:33:49.607Z,48.35
2022-12-08T18:36:21.977Z,54.92
2022-12-08T18:38:50.272Z,46.60
2022-12-08T18:41:25.705Z,42.35
2022-12-08T18:43:55.365Z,48.70
2022-12-08T18:46:24.840Z,517.10
2022-12-08T18:48:53.117Z,457.05
2022-12-08T18:51:24.089Z,597.67
2022-12-08T18:53:52.495Z,617.58
2022-12-08T18:56:33.031Z,508.83
2022-12-08T18:59:08.855Z,331.00
2022-12-08T19:01:38.848Z,67.88
2022-12-08T19:04:28.089Z,168.88
2022-12-08T19:06:57.580Z,295.95
2022-12-08T19:09:26.976Z,419.58
2022-12-08T19:11:56.332Z,256.92
2022-12-08T19:14:28.185Z,98.10
2022-12-08T19:16:58.063Z,58.50
2022-12-08T19:19:27.417Z,35.63
2022-12-08T19:21:56.283Z,32.92
2022-12-08T19:24:24.978Z,36.53
2022-12-08T19:26:53.521Z,34.88
2022-12-08T19:31:48.924Z,33.03
2022-12-08T19:34:19.605Z,145.77
2022-12-08T19:36:48.216Z,202.55
2022-12-08T19:39:40.614Z,42.92
2022-12-08T19:42:36.632Z,24.42
2022-12-08T19:45:13.354Z,35.05
2022-12-08T19:47:41.823Z,62.63
2022-12-08T19:52:58.425Z,400.52
2022-12-08T19:55:27.656Z,471.52
2022-12-08T19:57:56.763Z,347.25
2022-12-08T20:00:24.717Z,306.27
2022-12-08T20:02:52.424Z,303.40
2022-12-08T20:05:20.305Z,301.30
2022-12-08T20:07:48.002Z,454.80
2022-12-08T20:10:30.741Z,263.35
2022-12-08T20:13:17.130Z,264.38
2022-12-08T20:15:45.736Z,303.75
2022-12-08T20:18:15.476Z,254.38
2022-12-08T20:20:45.762Z,257.48
2022-12-08T20:23:15.564Z,290.17
2022-12-08T20:25:45.427Z,345.45
2022-12-08T20:28:14.542Z,316.55
2022-12-08T20:30:44.021Z,450.50
2022-12-08T20:33:14.032Z,293.73
2022-12-08T20:35:43.203Z,307.85
2022-12-08T20:38:13.508Z,281.08
2022-12-08T20:40:46.555Z,240.57
2022-12-08T20:43:15.231Z,291.08
2022-12-08T20:45:43.468Z,273.08
2022-12-08T20:48:11.907Z,291.95
2022-12-08T20:50:40.423Z,277.85
2022-12-08T20:53:09.598Z,269.67
2022-12-08T20:55:43.012Z,246.73
2022-12-08T20:58:12.571Z,344.10
2022-12-08T21:00:40.792Z,317.08
2022-12-08T21:03:09.542Z,198.15
2022-12-08T21:05:39.070Z,217.75
2022-12-08T21:08:08.095Z,197.10
2022-12-08T21:10:42.203Z,205.77
2022-12-08T21:13:12.258Z,220.63
2022-12-08T21:18:17.035Z,141.98
2022-12-08T21:20:45.788Z,122.90
2022-12-08T21:23:14.117Z,115.05
2022-12-08T21:25:45.176Z,111.70
2022-12-08T21:28:13.593Z,161.15
2022-12-08T21:30:43.174Z,149.57
2022-12-08T21:33:10.918Z,153.68
2022-12-08T21:35:38.820Z,156.27
2022-12-08T21:38:07.406Z,191.97
2022-12-08T21:43:06.057Z,178.15
2022-12-08T21:45:34.341Z,180.70
2022-12-08T21:48:10.330Z,220.10
2022-12-08T21:50:39.779Z,296.23
2022-12-08T21:53:08.025Z,268.35
2022-12-08T21:55:35.780Z,196.60
2022-12-08T21:58:03.460Z,172.32
2022-12-08T22:00:37.641Z,289.95
2022-12-08T22:03:06.019Z,117.93
2022-12-08T22:08:03.683Z,109.32
2022-12-08T22:10:31.573Z,98.70
2022-12-08T22:12:59.243Z,108.10
2022-12-08T22:15:29.734Z,74.03
2022-12-08T22:17:57.761Z,104.25
2022-12-08T22:20:25.701Z,100.57
2022-12-08T22:22:53.207Z,92.87
2022-12-08T22:25:21.103Z,84.17
2022-12-08T22:27:48.657Z,82.82
2022-12-08T22:30:16.314Z,98.40
2022-12-08T22:32:43.937Z,89.93
2022-12-08T22:35:11.552Z,127.00
2022-12-08T22:37:39.270Z,151.48
2022-12-08T22:40:08.381Z,143.73
2022-12-08T22:42:36.346Z,121.18
2022-12-08T22:45:04.212Z,93.97
2022-12-08T22:47:31.728Z,86.40
2022-12-08T22:49:59.878Z,71.80
2022-12-08T22:52:27.742Z,56.45
2022-12-08T22:54:55.772Z,44.05
2022-12-08T22:57:23.352Z,43.50
2022-12-08T22:59:50.909Z,40.00
2022-12-08T23:02:18.489Z,36.97
2022-12-08T23:04:46.529Z,45.13
2022-12-08T23:07:14.453Z,60.70
2022-12-08T23:09:42.309Z,45.70
2022-12-08T23:12:10.193Z,47.38
2022-12-08T23:14:38.074Z,51.35
2022-12-08T23:17:05.763Z,39.85
2022-12-08T23:19:37.169Z,34.47
2022-12-08T23:22:05.330Z,34.20
2022-12-08T23:24:33.021Z,35.83
2022-12-08T23:27:00.802Z,46.28
2022-12-08T23:29:28.374Z,42.05
2022-12-08T23:31:56.323Z,32.50
2022-12-08T23:34:24.451Z,27.05
2022-12-08T23:36:52.121Z,20.30
2022-12-08T23:39:19.800Z,25.03
2022-12-08T23:41:47.574Z,24.50
2022-12-08T23:44:15.381Z,22.52
2022-12-08T23:46:43.184Z,18.08
2022-12-08T23:49:11.027Z,18.92
2022-12-08T23:51:39.125Z,18.48
2022-12-08T23:54:07.955Z,20.02
2022-12-08T23:56:35.863Z,34.65
2022-12-08T23:59:03.648Z,30.92
